createdAt,value
2023-04-04T00:02:59.244Z,101378.33
2023-04-04T00:18:05.304Z,101364.19
2023-04-04T00:33:08.202Z,101349.65
2023-04-04T00:48:11.443Z,101339.15
2023-04-04T01:03:14.269Z,101326.56
2023-04-04T01:18:20.092Z,101322.35
2023-04-04T01:33:28.039Z,101315.46
2023-04-04T01:48:30.803Z,101301.53
2023-04-04T02:03:33.387Z,101278.69
2023-04-04T02:18:36.990Z,101272.15
2023-04-04T02:33:39.578Z,101260.08
2023-04-04T02:48:42.163Z,101270.00
2023-04-04T03:03:44.877Z,101279.27
2023-04-04T03:18:48.243Z,101278.94
2023-04-04T03:33:50.828Z,101281.35
2023-04-04T03:48:53.436Z,101278.18
2023-04-04T04:03:56.748Z,101276.31
2023-04-04T04:18:59.498Z,101282.35
2023-04-04T04:34:05.740Z,101280.23
2023-04-04T04:49:08.768Z,101284.66
2023-04-04T05:04:11.489Z,101278.23
2023-04-04T05:19:14.094Z,101282.08
2023-04-04T05:34:16.781Z,101289.79
2023-04-04T05:49:19.514Z,101296.65
2023-04-04T06:04:22.600Z,101294.45
2023-04-04T06:19:25.271Z,101293.91
2023-04-04T06:34:28.480Z,101292.11
2023-04-04T06:49:31.181Z,101287.33
2023-04-04T07:04:35.173Z,101279.58
2023-04-04T07:19:37.930Z,101277.95
2023-04-04T07:34:40.505Z,101287.55
2023-04-04T07:49:43.650Z,101284.10
2023-04-04T08:04:46.290Z,101292.43
2023-04-04T08:19:49.031Z,101290.14
2023-04-04T08:34:52.126Z,101281.53
2023-04-04T08:50:01.814Z,101287.86
2023-04-04T09:05:07.363Z,101277.77
2023-04-04T09:20:35.977Z,101263.84
2023-04-04T09:35:43.941Z,101254.67
2023-04-04T09:50:47.429Z,101265.17
2023-04-04T10:06:00.118Z,101262.31
2023-04-04T10:21:15.291Z,101259.55
2023-04-04T10:36:29.486Z,101250.80
2023-04-04T10:51:37.117Z,101243.63
2023-04-04T11:07:03.676Z,101233.87
2023-04-04T11:22:06.722Z,101223.70
2023-04-04T11:37:20.005Z,101213.06
2023-04-04T11:52:23.977Z,101196.58
2023-04-04T12:07:29.167Z,101200.74
2023-04-04T12:22:35.691Z,101200.41
2023-04-04T12:37:38.402Z,101189.56
2023-04-04T12:52:41.085Z,101180.86
2023-04-04T13:23:06.758Z,101176.48
2023-04-04T13:38:09.298Z,101158.86
2023-04-04T13:53:11.862Z,101155.34
2023-04-04T14:08:14.668Z,101155.36
2023-04-04T14:23:17.535Z,101145.81
2023-04-04T14:38:20.189Z,101139.82
2023-04-04T14:53:23.581Z,101148.36
2023-04-04T15:08:26.425Z,101143.78
2023-04-04T15:23:28.986Z,101140.86
2023-04-04T15:38:31.749Z,101119.64
2023-04-04T15:53:34.564Z,101112.84
2023-04-04T16:08:37.142Z,101109.12
2023-04-04T16:23:39.777Z,101102.64
2023-04-04T16:38:42.466Z,101106.08
2023-04-04T16:53:45.037Z,101095.90
2023-04-04T17:08:49.373Z,101081.25
2023-04-04T17:23:52.172Z,101068.89
2023-04-04T17:38:54.843Z,101064.01
2023-04-04T17:53:57.531Z,101064.54
2023-04-04T18:09:00.335Z,101059.85
2023-04-04T18:24:04.359Z,101064.73
2023-04-04T18:39:07.023Z,101066.35
2023-04-04T18:54:09.683Z,101062.86
2023-04-04T19:09:12.666Z,101062.89
2023-04-04T19:24:15.601Z,101059.89
2023-04-04T19:39:20.724Z,101048.33
2023-04-04T19:54:34.135Z,101055.27
2023-04-04T20:09:40.314Z,101054.16
2023-04-04T20:24:46.705Z,101042.11
2023-04-04T20:39:57.276Z,101031.19
2023-04-04T20:55:02.890Z,101022.36
2023-04-04T21:10:19.853Z,101018.15
2023-04-04T21:25:43.804Z,101001.92
2023-04-04T21:40:46.375Z,100994.56
2023-04-04T21:55:49.133Z,100989.11
2023-04-04T22:10:52.353Z,100981.52
2023-04-04T22:25:54.961Z,100973.39
2023-04-04T22:40:58.406Z,100961.66
2023-04-04T22:56:01.185Z,100965.11
2023-04-04T23:11:03.780Z,100960.22
2023-04-04T23:26:06.919Z,100946.25
2023-04-04T23:41:11.042Z,100934.18
2023-04-04T23:56:13.755Z,100922.46
